createdAt,value
2019-03-13T00:00:38.619Z,23.9
2019-03-13T00:01:40.805Z,23.9
2019-03-13T00:02:42.943Z,23.9
2019-03-13T00:03:45.153Z,23.9
2019-03-13T00:04:47.562Z,23.9
2019-03-13T00:05:49.716Z,23.9
2019-03-13T00:06:52.158Z,23.9
2019-03-13T00:07:54.302Z,23.9
2019-03-13T00:08:56.534Z,24
2019-03-13T00:09:58.967Z,24
2019-03-13T00:11:01.399Z,24
2019-03-13T00:12:03.535Z,24
2019-03-13T00:13:05.673Z,24
2019-03-13T00:14:07.818Z,24
2019-03-13T00:15:10.007Z,24
2019-03-13T00:16:11.888Z,24.1
2019-03-13T00:17:14.051Z,24.1
2019-03-13T00:18:16.518Z,24.1
2019-03-13T00:19:18.947Z,24.1
2019-03-13T00:20:21.382Z,24.1
2019-03-13T00:21:23.558Z,24.1
2019-03-13T00:22:25.738Z,24.1
2019-03-13T00:23:27.910Z,24.1
2019-03-13T00:24:30.330Z,24.1
2019-03-13T00:25:32.770Z,24.1
2019-03-13T00:26:35.197Z,24.1
2019-03-13T00:27:37.359Z,24.1
2019-03-13T00:28:39.600Z,24.1
2019-03-13T00:29:41.758Z,24.1
2019-03-13T00:30:43.911Z,24.1
2019-03-13T00:31:46.334Z,24.1
2019-03-13T00:32:48.496Z,24.2
2019-03-13T00:33:50.636Z,24.2
2019-03-13T00:34:52.538Z,24.2
2019-03-13T00:35:54.968Z,24.2
2019-03-13T00:36:56.849Z,24.2
2019-03-13T00:37:58.764Z,24.3
2019-03-13T00:39:01.201Z,24.3
2019-03-13T00:40:03.624Z,24.3
2019-03-13T00:41:05.788Z,24.3
2019-03-13T00:42:08.216Z,24.4
2019-03-13T00:43:10.646Z,24.4
2019-03-13T00:44:12.668Z,24.4
2019-03-13T00:45:15.096Z,24.4
2019-03-13T00:46:17.532Z,24.4
2019-03-13T00:47:19.960Z,24.4
2019-03-13T00:48:22.111Z,24.4
2019-03-13T00:49:24.538Z,24.5
2019-03-13T00:50:26.971Z,24.5
2019-03-13T00:51:29.410Z,24.5
2019-03-13T00:52:31.567Z,24.5
2019-03-13T00:53:33.994Z,24.5
2019-03-13T00:54:36.430Z,24.5
2019-03-13T00:55:38.591Z,24.5
2019-03-13T00:56:40.760Z,24.5
2019-03-13T00:57:43.190Z,24.5
2019-03-13T00:58:45.348Z,24.5
2019-03-13T00:59:47.760Z,24.5
2019-03-13T01:00:50.286Z,24.5
2019-03-13T01:01:52.176Z,24.5
2019-03-13T01:02:54.598Z,24.5
2019-03-13T01:03:56.760Z,24.5
2019-03-13T01:04:59.246Z,24.5
2019-03-13T01:06:00.657Z,24.6
2019-03-13T01:07:02.811Z,24.6
2019-03-13T01:08:04.959Z,24.6
2019-03-13T01:09:07.386Z,24.6
2019-03-13T01:10:09.548Z,24.6
2019-03-13T01:11:11.986Z,24.6
2019-03-13T01:12:14.426Z,24.6
2019-03-13T01:13:16.855Z,24.6
2019-03-13T01:14:19.027Z,24.6
2019-03-13T01:15:21.552Z,24.6
2019-03-13T01:16:23.699Z,24.6
2019-03-13T01:17:26.116Z,24.6
2019-03-13T01:18:28.538Z,24.6
2019-03-13T01:19:30.981Z,24.6
2019-03-13T01:20:33.406Z,24.6
2019-03-13T01:21:35.826Z,24.6
2019-03-13T01:22:37.714Z,24.6
2019-03-13T01:23:40.133Z,24.6
2019-03-13T01:24:42.586Z,24.6
2019-03-13T01:25:45.021Z,24.6
2019-03-13T01:26:46.916Z,24.6
2019-03-13T01:27:49.072Z,24.6
2019-03-13T01:28:50.946Z,24.6
2019-03-13T01:29:53.170Z,24.6
2019-03-13T01:30:54.818Z,24.6
2019-03-13T01:31:56.948Z,24.6
2019-03-13T01:32:59.104Z,24.6
2019-03-13T01:34:00.992Z,24.6
2019-03-13T01:35:03.422Z,24.7
2019-03-13T01:36:05.866Z,24.7
2019-03-13T01:37:08.296Z,24.7
2019-03-13T01:38:10.731Z,24.7
2019-03-13T01:39:12.891Z,24.6
2019-03-13T01:40:15.313Z,24.6
2019-03-13T01:41:17.454Z,24.7
2019-03-13T01:42:19.887Z,24.7
2019-03-13T01:43:21.760Z,24.7
2019-03-13T01:44:24.181Z,24.7
2019-03-13T01:45:26.604Z,24.7
2019-03-13T01:46:28.762Z,24.7
2019-03-13T01:47:30.926Z,24.7
2019-03-13T01:48:33.358Z,24.6
2019-03-13T01:49:35.844Z,24.7
2019-03-13T01:50:37.708Z,24.7
2019-03-13T01:51:39.881Z,24.7
2019-03-13T01:52:42.056Z,24.7
2019-03-13T01:53:44.487Z,24.7
2019-03-13T01:54:46.647Z,24.7
2019-03-13T01:55:48.535Z,24.7
2019-03-13T01:56:50.980Z,24.7
2019-03-13T01:57:53.411Z,24.7
2019-03-13T01:58:55.821Z,24.7
2019-03-13T01:59:58.251Z,24.7
2019-03-13T02:01:00.682Z,24.7
2019-03-13T02:02:02.827Z,24.7
2019-03-13T02:03:05.246Z,24.7
2019-03-13T02:04:07.396Z,24.7
2019-03-13T02:05:09.830Z,24.7
2019-03-13T02:06:12.261Z,24.7
2019-03-13T02:07:14.141Z,24.7
2019-03-13T02:08:16.566Z,24.7
2019-03-13T02:09:19.002Z,24.7
2019-03-13T02:10:21.440Z,24.7
2019-03-13T02:11:23.886Z,24.7
2019-03-13T02:12:26.385Z,24.7
2019-03-13T02:13:28.811Z,24.7
2019-03-13T02:14:30.968Z,24.7
2019-03-13T02:15:33.110Z,24.7
2019-03-13T02:16:35.577Z,24.7
2019-03-13T02:17:38.010Z,24.7
2019-03-13T02:18:40.448Z,24.7
2019-03-13T02:19:42.316Z,24.7
2019-03-13T02:20:44.748Z,24.7
2019-03-13T02:21:47.179Z,24.7
2019-03-13T02:22:49.596Z,24.7
2019-03-13T02:23:51.488Z,24.7
2019-03-13T02:24:55.062Z,24.7
2019-03-13T02:25:57.198Z,24.7
2019-03-13T02:26:59.348Z,24.7
2019-03-13T02:28:01.779Z,24.7
2019-03-13T02:29:04.262Z,24.7
2019-03-13T02:30:06.686Z,24.7
2019-03-13T02:31:08.823Z,24.7
2019-03-13T02:32:11.258Z,24.7
2019-03-13T02:33:13.677Z,24.7
2019-03-13T02:34:16.116Z,24.7
2019-03-13T02:35:18.579Z,24.7
2019-03-13T02:36:20.460Z,24.7
2019-03-13T02:37:22.886Z,24.7
2019-03-13T02:38:25.320Z,24.7
2019-03-13T02:39:27.795Z,24.7
2019-03-13T02:40:30.229Z,24.7
2019-03-13T02:41:32.655Z,24.8
2019-03-13T02:42:35.091Z,24.8
2019-03-13T02:43:37.538Z,24.8
2019-03-13T02:44:39.969Z,24.8
2019-03-13T02:45:42.120Z,24.8
2019-03-13T02:46:44.548Z,24.8
2019-03-13T02:47:46.982Z,24.8
2019-03-13T02:48:49.416Z,24.8
2019-03-13T02:49:51.849Z,24.8
2019-03-13T02:50:54.280Z,24.8
2019-03-13T02:51:56.712Z,24.8
2019-03-13T02:52:59.015Z,24.8
2019-03-13T02:54:01.182Z,24.8
2019-03-13T02:55:03.623Z,24.8
2019-03-13T02:56:05.791Z,24.8
2019-03-13T02:57:07.952Z,24.8
2019-03-13T02:58:10.116Z,24.8
2019-03-13T02:59:12.269Z,24.8
2019-03-13T03:00:14.707Z,24.8
2019-03-13T03:01:17.136Z,24.8
2019-03-13T03:02:19.300Z,24.8
2019-03-13T03:03:21.728Z,24.8
2019-03-13T03:04:23.986Z,24.8
2019-03-13T03:05:26.520Z,24.8
2019-03-13T03:06:28.991Z,24.8
2019-03-13T03:07:31.410Z,24.8
2019-03-13T03:08:33.890Z,24.8
2019-03-13T03:09:36.308Z,24.8
2019-03-13T03:10:38.513Z,24.8
2019-03-13T03:11:40.674Z,24.8
2019-03-13T03:12:42.821Z,24.8
2019-03-13T03:13:44.701Z,24.8
2019-03-13T03:14:47.130Z,24.8
2019-03-13T03:15:49.593Z,24.8
2019-03-13T03:16:52.021Z,24.8
2019-03-13T03:17:54.437Z,24.8
2019-03-13T03:18:56.595Z,24.8
2019-03-13T03:19:59.030Z,24.8
2019-03-13T03:21:01.468Z,24.8
2019-03-13T03:22:03.892Z,24.8
2019-03-13T03:23:06.154Z,24.8
2019-03-13T03:24:08.581Z,24.8
2019-03-13T03:25:10.766Z,24.8
2019-03-13T03:26:12.913Z,24.8
2019-03-13T03:27:15.335Z,24.8
2019-03-13T03:28:17.779Z,24.8
2019-03-13T03:29:20.205Z,24.8
2019-03-13T03:30:23.602Z,24.8
2019-03-13T03:31:26.089Z,24.8
2019-03-13T03:32:27.940Z,24.8
2019-03-13T03:33:30.466Z,24.8
2019-03-13T03:34:32.988Z,24.8
2019-03-13T03:35:35.410Z,24.8
2019-03-13T03:36:37.288Z,24.8
2019-03-13T03:37:39.706Z,24.8
2019-03-13T03:38:42.201Z,24.8
2019-03-13T03:39:44.369Z,24.8
2019-03-13T03:40:46.811Z,24.8
2019-03-13T03:41:49.242Z,24.8
2019-03-13T03:42:51.676Z,24.8
2019-03-13T03:43:54.126Z,24.8
2019-03-13T03:44:56.572Z,24.8
2019-03-13T03:45:59.003Z,24.8
2019-03-13T03:47:01.155Z,24.8
2019-03-13T03:48:03.329Z,24.8
2019-03-13T03:49:05.448Z,24.8
2019-03-13T03:50:07.881Z,24.8
2019-03-13T03:51:10.015Z,24.8
2019-03-13T03:52:12.184Z,24.8
2019-03-13T03:53:14.614Z,24.8
2019-03-13T03:54:16.773Z,24.8
2019-03-13T03:55:19.208Z,24.8
2019-03-13T03:56:21.635Z,24.8
2019-03-13T03:57:23.802Z,24.8
2019-03-13T03:59:31.206Z,24.8
2019-03-13T04:00:33.642Z,24.8
2019-03-13T04:01:36.069Z,24.8
2019-03-13T04:02:38.217Z,24.8
2019-03-13T04:03:40.656Z,24.8
2019-03-13T04:04:43.088Z,24.8
2019-03-13T04:05:45.526Z,24.8
2019-03-13T04:06:47.954Z,24.7
2019-03-13T04:07:50.368Z,24.7
2019-03-13T04:08:52.880Z,24.6
2019-03-13T04:09:55.310Z,24.6
2019-03-13T04:10:57.454Z,24.6
2019-03-13T04:11:59.879Z,24.6
2019-03-13T04:13:02.060Z,24.5
2019-03-13T04:14:04.490Z,24.5
2019-03-13T04:15:06.936Z,24.5
2019-03-13T04:16:09.370Z,24.5
2019-03-13T04:17:11.917Z,24.5
2019-03-13T04:18:14.079Z,24.4
2019-03-13T04:19:15.977Z,24.4
2019-03-13T04:20:18.420Z,24.4
2019-03-13T04:21:20.855Z,24.4
2019-03-13T04:22:23.218Z,24.4
2019-03-13T04:23:25.351Z,24.4
2019-03-13T04:24:27.497Z,24.3
2019-03-13T04:25:29.667Z,24.3
2019-03-13T04:26:31.819Z,24.3
2019-03-13T04:27:33.699Z,24.3
2019-03-13T04:28:36.115Z,24.3
2019-03-13T04:29:38.623Z,24.3
2019-03-13T04:30:40.799Z,24.3
2019-03-13T04:31:43.274Z,24.3
2019-03-13T04:32:45.711Z,24.3
2019-03-13T04:33:48.140Z,24.3
2019-03-13T04:34:50.567Z,24.3
2019-03-13T04:35:53.001Z,24.2
2019-03-13T04:36:55.424Z,24.2
2019-03-13T04:37:58.272Z,24.2
2019-03-13T04:39:00.850Z,24.2
2019-03-13T04:40:03.004Z,24.2
2019-03-13T04:41:05.222Z,24.2
2019-03-13T04:42:07.419Z,24.2
2019-03-13T04:43:09.861Z,24.2
2019-03-13T04:44:12.385Z,24.2
2019-03-13T04:45:14.548Z,24.2
2019-03-13T04:46:16.703Z,24.2
2019-03-13T04:47:19.131Z,24.2
2019-03-13T04:48:20.995Z,24.2
2019-03-13T04:49:23.178Z,24.2
2019-03-13T04:50:25.327Z,24.2
2019-03-13T04:51:27.755Z,24.2
2019-03-13T04:52:30.177Z,24.2
2019-03-13T04:53:32.341Z,24.2
2019-03-13T04:54:34.767Z,24.2
2019-03-13T04:55:36.937Z,24.2
2019-03-13T04:56:39.107Z,24.2
2019-03-13T04:57:41.270Z,24.2
2019-03-13T04:58:43.707Z,24.1
2019-03-13T04:59:46.134Z,24.1
2019-03-13T05:00:48.560Z,24.1
2019-03-13T05:01:50.686Z,24.2
2019-03-13T05:02:52.837Z,24.1
2019-03-13T05:03:55.000Z,24.1
2019-03-13T05:04:57.168Z,24.1
2019-03-13T05:05:59.325Z,24.1
2019-03-13T05:07:01.751Z,24.1
2019-03-13T05:08:04.175Z,24.1
2019-03-13T05:09:06.328Z,24.1
2019-03-13T05:10:08.817Z,24.1
2019-03-13T05:11:11.247Z,24.1
2019-03-13T05:12:13.491Z,24.1
2019-03-13T05:13:15.677Z,24.1
2019-03-13T05:14:17.836Z,24.1
2019-03-13T05:15:20.269Z,24.1
2019-03-13T05:16:22.441Z,24.1
2019-03-13T05:17:24.867Z,24.1
2019-03-13T05:18:26.468Z,24.1
2019-03-13T05:19:28.897Z,24.1
2019-03-13T05:20:31.045Z,24.1
2019-03-13T05:21:33.226Z,24.1
2019-03-13T05:22:35.641Z,24.1
2019-03-13T05:23:38.067Z,24.1
2019-03-13T05:24:40.493Z,24.1
2019-03-13T05:25:42.915Z,24
2019-03-13T05:26:45.086Z,24
2019-03-13T05:27:47.511Z,24
2019-03-13T05:28:49.945Z,24
2019-03-13T05:29:52.392Z,24
2019-03-13T05:30:54.515Z,24
2019-03-13T05:31:56.419Z,24
2019-03-13T05:32:58.565Z,24
2019-03-13T05:34:00.988Z,24
2019-03-13T05:35:03.420Z,24
2019-03-13T05:36:05.842Z,24
2019-03-13T05:37:08.264Z,24
2019-03-13T05:38:10.484Z,24
2019-03-13T05:39:12.899Z,24
2019-03-13T05:40:15.086Z,24
2019-03-13T05:41:17.232Z,24
2019-03-13T05:42:19.659Z,24
2019-03-13T05:43:21.533Z,24
2019-03-13T05:44:23.702Z,24
2019-03-13T05:45:26.141Z,24
2019-03-13T05:46:28.559Z,24
2019-03-13T05:47:30.717Z,24
2019-03-13T05:48:33.145Z,24
2019-03-13T05:49:35.574Z,24
2019-03-13T05:50:37.995Z,24
2019-03-13T05:51:40.422Z,24
2019-03-13T05:52:42.292Z,24
2019-03-13T05:53:44.733Z,24
2019-03-13T05:54:46.910Z,24
2019-03-13T05:55:49.063Z,24
2019-03-13T05:56:51.212Z,24
2019-03-13T05:57:53.725Z,24
2019-03-13T05:58:56.167Z,24
2019-03-13T05:59:58.590Z,24
2019-03-13T06:01:01.041Z,24
2019-03-13T06:02:03.472Z,24
2019-03-13T06:03:05.972Z,24
2019-03-13T06:04:08.127Z,24
2019-03-13T06:05:10.554Z,24
2019-03-13T06:06:12.979Z,24
2019-03-13T06:07:15.413Z,24
2019-03-13T06:08:19.605Z,24
2019-03-13T06:09:21.752Z,24
2019-03-13T06:10:28.186Z,24
2019-03-13T06:11:30.310Z,24
2019-03-13T06:12:32.731Z,24
2019-03-13T06:13:35.158Z,24
2019-03-13T06:14:37.316Z,24
2019-03-13T06:15:39.480Z,24
2019-03-13T06:16:41.649Z,23.9
2019-03-13T06:17:44.081Z,24
2019-03-13T06:18:46.503Z,23.9
2019-03-13T06:19:48.931Z,23.9
2019-03-13T06:20:51.065Z,23.9
2019-03-13T06:21:53.585Z,23.9
2019-03-13T06:22:56.015Z,23.9
2019-03-13T06:23:58.443Z,23.9
2019-03-13T06:25:00.938Z,23.9
2019-03-13T06:26:03.121Z,23.9
2019-03-13T06:27:05.556Z,23.9
2019-03-13T06:28:07.706Z,23.9
2019-03-13T06:29:10.149Z,23.9
2019-03-13T06:30:12.649Z,23.9
2019-03-13T06:31:15.071Z,23.9
2019-03-13T06:32:17.232Z,23.9
2019-03-13T06:33:19.666Z,23.9
2019-03-13T06:34:21.537Z,23.9
2019-03-13T06:35:24.919Z,23.9
2019-03-13T06:36:27.086Z,23.9
2019-03-13T06:37:29.505Z,23.9
2019-03-13T06:38:31.962Z,23.9
2019-03-13T06:39:34.188Z,23.9
2019-03-13T06:40:36.663Z,23.9
2019-03-13T06:41:39.110Z,23.9
2019-03-13T06:42:41.262Z,23.9
2019-03-13T06:43:43.430Z,23.9
2019-03-13T06:44:45.558Z,23.9
2019-03-13T06:45:47.982Z,23.9
2019-03-13T06:46:50.419Z,23.9
2019-03-13T06:47:52.592Z,23.9
2019-03-13T06:48:54.748Z,23.9
2019-03-13T06:49:57.186Z,23.9
2019-03-13T06:50:58.804Z,23.9
2019-03-13T06:52:01.248Z,23.9
2019-03-13T06:53:03.424Z,23.9
2019-03-13T06:54:05.294Z,23.9
2019-03-13T06:55:07.466Z,23.9
2019-03-13T06:56:09.965Z,23.9
2019-03-13T06:57:12.148Z,23.9
2019-03-13T06:58:14.316Z,23.9
2019-03-13T06:59:16.761Z,23.9
2019-03-13T07:00:19.228Z,23.9
2019-03-13T07:01:21.187Z,23.9
2019-03-13T07:02:23.311Z,23.9
2019-03-13T07:03:25.463Z,23.9
2019-03-13T07:04:27.612Z,23.9
2019-03-13T07:05:30.033Z,23.9
2019-03-13T07:06:32.467Z,23.9
2019-03-13T07:07:34.611Z,23.9
2019-03-13T07:08:36.510Z,23.9
2019-03-13T07:09:40.559Z,23.9
2019-03-13T07:10:42.441Z,23.9
2019-03-13T07:11:44.017Z,23.9
2019-03-13T07:12:46.440Z,23.9
2019-03-13T07:13:48.861Z,23.9
2019-03-13T07:14:51.277Z,23.9
2019-03-13T07:15:53.703Z,23.9
2019-03-13T07:16:55.861Z,23.9
2019-03-13T07:17:58.301Z,23.9
2019-03-13T07:19:00.481Z,23.9
2019-03-13T07:20:02.891Z,23.9
2019-03-13T07:21:05.099Z,23.9
2019-03-13T07:22:07.547Z,23.9
2019-03-13T07:23:09.972Z,23.9
2019-03-13T07:24:11.846Z,23.9
2019-03-13T07:25:14.278Z,23.9
2019-03-13T07:26:16.442Z,23.9
2019-03-13T07:27:18.341Z,23.9
2019-03-13T07:28:20.770Z,23.9
2019-03-13T07:29:23.205Z,23.9
2019-03-13T07:30:25.633Z,23.9
2019-03-13T07:31:28.061Z,23.9
2019-03-13T07:32:30.233Z,23.9
2019-03-13T07:33:32.396Z,23.9
2019-03-13T07:34:34.820Z,23.9
2019-03-13T07:35:37.251Z,23.9
2019-03-13T07:36:39.118Z,23.9
2019-03-13T07:37:40.990Z,23.9
2019-03-13T07:38:43.414Z,23.9
2019-03-13T07:39:45.847Z,23.9
2019-03-13T07:40:48.289Z,23.9
2019-03-13T07:41:50.720Z,23.9
2019-03-13T07:42:52.894Z,23.9
2019-03-13T07:43:55.330Z,23.9
2019-03-13T07:44:57.772Z,23.9
2019-03-13T07:46:00.194Z,23.9
2019-03-13T07:47:02.618Z,23.9
2019-03-13T07:48:04.786Z,23.9
2019-03-13T07:49:06.685Z,23.9
2019-03-13T07:50:08.840Z,23.9
2019-03-13T07:51:11.269Z,23.9
2019-03-13T07:52:13.890Z,23.9
2019-03-13T07:53:16.332Z,23.9
2019-03-13T07:54:18.753Z,23.9
2019-03-13T07:55:20.645Z,23.9
2019-03-13T07:56:22.807Z,23.9
2019-03-13T07:57:25.263Z,23.9
2019-03-13T07:58:27.690Z,23.9
2019-03-13T07:59:30.111Z,23.9
2019-03-13T08:00:32.542Z,23.9
2019-03-13T08:01:34.710Z,23.9
2019-03-13T08:02:36.876Z,23.9
2019-03-13T08:03:39.343Z,23.9
2019-03-13T08:04:41.206Z,23.9
2019-03-13T08:05:43.349Z,23.9
2019-03-13T08:06:45.506Z,23.9
2019-03-13T08:07:47.929Z,23.9
2019-03-13T08:08:49.804Z,23.9
2019-03-13T08:09:52.240Z,23.9
2019-03-13T08:10:54.402Z,23.9
2019-03-13T08:11:56.280Z,23.9
2019-03-13T08:12:58.700Z,23.9
2019-03-13T08:14:00.851Z,23.9
2019-03-13T08:15:03.290Z,23.9
2019-03-13T08:16:05.175Z,23.9
2019-03-13T08:17:07.593Z,23.9
2019-03-13T08:18:10.030Z,23.9
2019-03-13T08:19:12.450Z,23.9
2019-03-13T08:20:14.341Z,23.9
2019-03-13T08:21:16.775Z,23.9
2019-03-13T08:22:19.198Z,23.9
2019-03-13T08:23:21.632Z,23.9
2019-03-13T08:24:24.082Z,23.9
2019-03-13T08:25:26.511Z,23.9
2019-03-13T08:26:28.944Z,23.9
2019-03-13T08:27:31.385Z,23.9
2019-03-13T08:28:33.551Z,23.9
2019-03-13T08:29:35.976Z,23.9
2019-03-13T08:30:38.146Z,23.9
2019-03-13T08:31:40.569Z,23.9
2019-03-13T08:32:42.728Z,23.9
2019-03-13T08:33:45.170Z,23.9
2019-03-13T08:34:47.318Z,23.9
2019-03-13T08:35:49.750Z,23.9
2019-03-13T08:36:51.877Z,23.9
2019-03-13T08:37:54.298Z,23.9
2019-03-13T08:38:56.721Z,23.9
2019-03-13T08:39:59.146Z,23.9
2019-03-13T08:41:01.875Z,23.9
2019-03-13T08:42:04.303Z,23.9
2019-03-13T08:43:06.740Z,23.9
2019-03-13T08:44:08.612Z,23.9
2019-03-13T08:45:10.757Z,23.9
2019-03-13T08:46:13.199Z,23.9
2019-03-13T08:47:15.367Z,23.9
2019-03-13T08:48:17.797Z,23.9
2019-03-13T08:49:19.968Z,23.9
2019-03-13T08:50:22.388Z,23.9
2019-03-13T08:51:24.526Z,23.9
2019-03-13T08:52:26.959Z,23.9
2019-03-13T08:53:29.119Z,23.9
2019-03-13T08:54:31.283Z,23.9
2019-03-13T08:55:33.432Z,23.9
2019-03-13T08:56:35.584Z,23.9
2019-03-13T08:57:38.010Z,23.9
2019-03-13T08:58:40.462Z,23.9
2019-03-13T08:59:42.889Z,23.9
2019-03-13T09:00:45.059Z,23.9
2019-03-13T09:01:47.220Z,23.9
2019-03-13T09:02:49.651Z,23.9
2019-03-13T09:03:52.098Z,23.9
2019-03-13T09:04:54.281Z,23.9
2019-03-13T09:05:56.163Z,23.9
2019-03-13T09:06:58.598Z,23.9
2019-03-13T09:08:01.028Z,23.9
2019-03-13T09:09:03.156Z,23.9
2019-03-13T09:10:05.578Z,23.9
2019-03-13T09:11:07.998Z,23.9
2019-03-13T09:12:10.141Z,23.9
2019-03-13T09:13:12.291Z,23.9
2019-03-13T09:14:14.722Z,23.9
2019-03-13T09:15:17.159Z,23.9
2019-03-13T09:16:20.880Z,23.9
2019-03-13T09:17:23.303Z,23.9
2019-03-13T09:18:25.797Z,23.9
2019-03-13T09:19:27.992Z,23.9
2019-03-13T09:20:30.415Z,23.9
2019-03-13T09:21:34.617Z,23.9
2019-03-13T09:22:37.053Z,23.9
2019-03-13T09:23:38.962Z,23.9
2019-03-13T09:24:41.422Z,23.9
2019-03-13T09:25:43.851Z,23.9
2019-03-13T09:26:46.281Z,23.9
2019-03-13T09:27:48.709Z,23.9
2019-03-13T09:28:51.145Z,23.9
2019-03-13T09:29:53.298Z,23.9
2019-03-13T09:30:55.720Z,23.9
2019-03-13T09:31:58.154Z,23.9
2019-03-13T09:33:00.324Z,23.9
2019-03-13T09:34:02.480Z,23.9
2019-03-13T09:35:05.010Z,23.9
2019-03-13T09:36:07.429Z,23.9
2019-03-13T09:37:09.298Z,23.9
2019-03-13T09:38:11.202Z,23.9
2019-03-13T09:39:13.054Z,23.9
2019-03-13T09:40:15.206Z,23.9
2019-03-13T09:41:17.775Z,23.9
2019-03-13T09:42:19.928Z,23.9
2019-03-13T09:43:22.361Z,23.9
2019-03-13T09:44:24.792Z,23.9
2019-03-13T09:45:27.238Z,23.9
2019-03-13T09:46:29.683Z,23.9
2019-03-13T09:47:32.111Z,23.9
2019-03-13T09:48:34.270Z,23.9
2019-03-13T09:49:36.719Z,23.9
2019-03-13T09:50:39.145Z,23.9
2019-03-13T09:51:41.306Z,23.9
2019-03-13T09:52:43.458Z,23.9
2019-03-13T09:53:45.889Z,23.9
2019-03-13T09:54:48.028Z,23.9
2019-03-13T09:55:50.188Z,23.9
2019-03-13T09:56:52.065Z,23.9
2019-03-13T09:57:54.490Z,23.9
2019-03-13T09:58:56.918Z,23.9
2019-03-13T09:59:59.355Z,23.9
2019-03-13T10:01:01.936Z,23.9
2019-03-13T10:02:03.807Z,23.9
2019-03-13T10:03:05.693Z,23.9
2019-03-13T10:04:07.301Z,23.9
2019-03-13T10:05:09.731Z,23.9
2019-03-13T10:06:11.895Z,23.9
2019-03-13T10:07:14.064Z,23.9
2019-03-13T10:08:16.222Z,23.9
2019-03-13T10:09:18.656Z,23.9
2019-03-13T10:10:21.086Z,23.9
2019-03-13T10:11:23.516Z,23.9
2019-03-13T10:12:25.957Z,23.9
2019-03-13T10:13:28.113Z,23.9
2019-03-13T10:14:30.531Z,23.9
2019-03-13T10:15:32.659Z,23.9
2019-03-13T10:16:35.099Z,23.9
2019-03-13T10:17:36.719Z,23.9
2019-03-13T10:18:39.151Z,23.9
2019-03-13T10:20:46.299Z,23.9
2019-03-13T10:21:48.449Z,23.9
2019-03-13T10:22:50.877Z,23.9
2019-03-13T10:23:53.295Z,23.9
2019-03-13T10:24:55.164Z,23.9
2019-03-13T10:25:57.592Z,23.9
2019-03-13T10:27:00.014Z,23.9
2019-03-13T10:28:02.171Z,23.9
2019-03-13T10:29:04.607Z,23.9
2019-03-13T10:30:07.043Z,23.9
2019-03-13T10:31:09.470Z,23.9
2019-03-13T10:32:11.631Z,23.9
2019-03-13T10:33:14.059Z,23.9
2019-03-13T10:34:16.211Z,23.9
2019-03-13T10:35:18.373Z,23.9
2019-03-13T10:36:20.541Z,23.9
2019-03-13T10:37:22.971Z,23.9
2019-03-13T10:38:25.404Z,23.9
2019-03-13T10:39:27.297Z,23.9
2019-03-13T10:40:29.463Z,23.9
2019-03-13T10:41:31.913Z,23.9
2019-03-13T10:42:34.393Z,23.9
2019-03-13T10:43:36.862Z,23.9
2019-03-13T10:44:38.481Z,23.9
2019-03-13T10:45:40.901Z,23.9
2019-03-13T10:46:43.062Z,23.9
2019-03-13T10:47:45.478Z,23.9
2019-03-13T10:48:47.901Z,23.9
2019-03-13T10:49:50.333Z,23.9
2019-03-13T10:50:52.485Z,23.9
2019-03-13T10:51:54.384Z,23.9
2019-03-13T10:52:56.535Z,23.9
2019-03-13T10:53:58.699Z,23.9
2019-03-13T10:55:01.109Z,23.9
2019-03-13T10:56:02.725Z,23.9
2019-03-13T10:57:05.144Z,23.9
2019-03-13T10:58:07.579Z,23.9
2019-03-13T10:59:10.015Z,23.9
2019-03-13T11:00:12.441Z,23.9
2019-03-13T11:01:14.604Z,23.9
2019-03-13T11:02:17.029Z,23.9
2019-03-13T11:03:19.460Z,23.9
2019-03-13T11:04:21.900Z,23.9
2019-03-13T11:05:24.322Z,23.9
2019-03-13T11:06:26.749Z,23.9
2019-03-13T11:07:29.661Z,23.9
2019-03-13T11:08:31.815Z,23.9
2019-03-13T11:09:34.317Z,23.9
2019-03-13T11:10:36.463Z,23.9
2019-03-13T11:11:38.899Z,23.9
2019-03-13T11:12:41.053Z,23.9
2019-03-13T11:13:43.483Z,23.9
2019-03-13T11:14:45.898Z,23.9
2019-03-13T11:15:48.061Z,23.9
2019-03-13T11:16:50.215Z,24
2019-03-13T11:17:52.646Z,23.9
2019-03-13T11:18:55.096Z,23.9
2019-03-13T11:19:57.259Z,23.9
2019-03-13T11:20:59.684Z,23.9
2019-03-13T11:22:02.104Z,23.9
2019-03-13T11:23:04.273Z,23.9
2019-03-13T11:24:06.707Z,23.9
2019-03-13T11:25:09.121Z,23.9
2019-03-13T11:26:11.558Z,23.9
2019-03-13T11:27:13.972Z,23.9
2019-03-13T11:28:16.114Z,23.9
2019-03-13T11:29:17.979Z,23.9
2019-03-13T11:30:21.831Z,23.9
2019-03-13T11:31:23.703Z,23.9
2019-03-13T11:32:26.237Z,23.9
2019-03-13T11:33:28.668Z,23.9
2019-03-13T11:34:30.852Z,23.9
2019-03-13T11:35:33.272Z,23.9
2019-03-13T11:36:36.216Z,23.9
2019-03-13T11:37:38.357Z,23.9
2019-03-13T11:38:40.219Z,23.9
2019-03-13T11:39:42.746Z,23.9
2019-03-13T11:40:45.167Z,23.9
2019-03-13T11:41:47.596Z,23.9
2019-03-13T11:42:50.019Z,23.9
2019-03-13T11:43:52.445Z,23.9
2019-03-13T11:44:54.872Z,23.9
2019-03-13T11:45:57.023Z,23.9
2019-03-13T11:46:59.439Z,23.9
2019-03-13T11:48:01.611Z,23.9
2019-03-13T11:49:04.049Z,23.9
2019-03-13T11:50:05.669Z,23.9
2019-03-13T11:51:08.105Z,23.9
2019-03-13T11:52:10.247Z,23.9
2019-03-13T11:53:12.699Z,23.9
2019-03-13T11:54:14.838Z,23.9
2019-03-13T11:55:17.275Z,23.9
2019-03-13T11:56:19.438Z,23.9
2019-03-13T11:57:21.868Z,23.9
2019-03-13T11:58:24.301Z,23.9
2019-03-13T11:59:26.738Z,23.9
2019-03-13T12:00:29.171Z,23.9
2019-03-13T12:01:31.316Z,23.9
2019-03-13T12:02:37.949Z,23.9
2019-03-13T12:03:40.385Z,23.9
2019-03-13T12:04:42.805Z,23.9
2019-03-13T12:05:45.267Z,23.9
2019-03-13T12:06:47.697Z,23.9
2019-03-13T12:07:49.573Z,23.9
2019-03-13T12:08:51.725Z,23.9
2019-03-13T12:09:53.870Z,23.9
2019-03-13T12:10:56.022Z,23.9
2019-03-13T12:11:57.910Z,23.9
2019-03-13T12:13:00.335Z,23.9
2019-03-13T12:14:02.507Z,23.9
2019-03-13T12:15:04.932Z,23.9
2019-03-13T12:16:07.097Z,23.9
2019-03-13T12:17:09.533Z,23.9
2019-03-13T12:18:11.969Z,23.9
2019-03-13T12:19:14.409Z,23.9
2019-03-13T12:20:16.841Z,23.9
2019-03-13T12:21:19.266Z,23.9
2019-03-13T12:22:21.789Z,24
2019-03-13T12:23:23.666Z,24
2019-03-13T12:24:26.089Z,23.9
2019-03-13T12:25:28.048Z,23.9
2019-03-13T12:26:30.470Z,23.9
2019-03-13T12:27:32.917Z,23.9
2019-03-13T12:28:35.093Z,24
2019-03-13T12:29:37.220Z,23.9
2019-03-13T12:30:39.651Z,24
2019-03-13T12:31:41.509Z,23.9
2019-03-13T12:32:43.936Z,23.9
2019-03-13T12:33:46.097Z,24
2019-03-13T12:34:48.525Z,23.9
2019-03-13T12:35:50.939Z,23.9
2019-03-13T12:36:52.811Z,23.9
2019-03-13T12:37:55.240Z,23.9
2019-03-13T12:38:57.418Z,23.9
2019-03-13T12:39:59.540Z,24
2019-03-13T12:41:02.024Z,23.9
2019-03-13T12:42:04.440Z,23.9
2019-03-13T12:43:06.866Z,23.9
2019-03-13T12:44:09.302Z,23.9
2019-03-13T12:45:11.444Z,23.9
2019-03-13T12:46:13.888Z,23.9
2019-03-13T12:47:16.044Z,24
2019-03-13T12:48:18.471Z,24
2019-03-13T12:49:20.649Z,24
2019-03-13T12:50:23.086Z,23.9
2019-03-13T12:51:25.540Z,24
2019-03-13T12:52:27.491Z,24
2019-03-13T12:53:29.656Z,24
2019-03-13T12:54:32.086Z,24
2019-03-13T12:55:34.236Z,24
2019-03-13T12:56:36.653Z,24
2019-03-13T12:57:38.816Z,24
2019-03-13T12:58:41.255Z,24
2019-03-13T12:59:43.687Z,24
2019-03-13T13:00:45.309Z,24
2019-03-13T13:01:47.450Z,24
2019-03-13T13:02:49.890Z,24
2019-03-13T13:03:52.032Z,24
2019-03-13T13:04:54.200Z,24
2019-03-13T13:05:56.413Z,24
2019-03-13T13:06:58.568Z,24
2019-03-13T13:08:00.465Z,24
2019-03-13T13:09:02.620Z,24
2019-03-13T13:10:04.778Z,24
2019-03-13T13:11:07.210Z,24
2019-03-13T13:12:09.081Z,24
2019-03-13T13:13:11.517Z,24
2019-03-13T13:14:13.689Z,24
2019-03-13T13:15:16.119Z,24
2019-03-13T13:16:18.281Z,24
2019-03-13T13:17:20.435Z,24
2019-03-13T13:18:22.622Z,24
2019-03-13T13:19:25.039Z,24
2019-03-13T13:20:27.230Z,24
2019-03-13T13:21:29.385Z,24
2019-03-13T13:22:31.817Z,24
2019-03-13T13:23:34.321Z,24
2019-03-13T13:24:36.761Z,24
2019-03-13T13:25:39.191Z,24
2019-03-13T13:26:41.329Z,24
2019-03-13T13:27:43.762Z,24
2019-03-13T13:28:46.176Z,24
2019-03-13T13:29:48.614Z,24
2019-03-13T13:30:51.034Z,24
2019-03-13T13:32:58.451Z,24
2019-03-13T13:34:00.615Z,24
2019-03-13T13:35:03.045Z,24
2019-03-13T13:36:05.468Z,24
2019-03-13T13:37:07.915Z,24
2019-03-13T13:38:11.182Z,24
2019-03-13T13:39:13.319Z,24
2019-03-13T13:40:15.745Z,24
2019-03-13T13:41:17.910Z,24
2019-03-13T13:42:20.071Z,24
2019-03-13T13:43:22.525Z,24
2019-03-13T13:44:24.969Z,24
2019-03-13T13:45:27.422Z,24
2019-03-13T13:46:29.863Z,24
2019-03-13T13:47:32.378Z,24
2019-03-13T13:48:34.537Z,24
2019-03-13T13:49:36.697Z,23.9
2019-03-13T13:50:39.130Z,23.9
2019-03-13T13:51:41.300Z,23.9
2019-03-13T13:52:43.451Z,23.9
2019-03-13T13:53:45.636Z,23.9
2019-03-13T13:54:48.057Z,23.9
2019-03-13T13:55:50.239Z,23.9
2019-03-13T13:56:52.671Z,23.9
2019-03-13T13:57:54.819Z,23.9
2019-03-13T13:58:56.983Z,23.9
2019-03-13T14:00:00.494Z,23.9
2019-03-13T14:01:02.641Z,23.9